Time;durP1;ratioP1;P1;durP2;ratioP2;P2;SDS_P1;SDS_P2;PMS_P1;PMS_P2;Temp;Humidity;BMP_temperature;BMP_pressure;BME280_temperature;BME280_humidity;BME280_pressure;Samples;Min_cycle;Max_cycle;Signal;HPM_P1;HPM_P2
2022/11/01 00:01:56;;;;;;;2.27;1.90;;;;;;;;;;1841914;78;21025;-64
2022/11/01 00:04:25;;;;;;;6.25;2.00;;;;;;;;;;1842022;77;21041;-64
2022/11/01 00:06:53;;;;;;;3.37;2.10;;;;;;;;;;1841999;78;21021;-64
2022/11/01 00:09:22;;;;;;;6.05;1.90;;;;;;;;;;1842033;78;21054;-64
2022/11/01 00:11:51;;;;;;;2.05;1.50;;;;;;;;;;1841861;78;21096;-64
2022/11/01 00:14:20;;;;;;;4.35;2.02;;;;;;;;;;1842014;78;21084;-64
2022/11/01 00:16:49;;;;;;;2.00;1.80;;;;;;;;;;1841997;78;21066;-64
2022/11/01 00:19:17;;;;;;;5.10;2.17;;;;;;;;;;1841912;78;21054;-64
2022/11/01 00:21:46;;;;;;;3.83;2.10;;;;;;;;;;1836767;77;21026;-64
2022/11/01 00:24:15;;;;;;;3.15;2.08;;;;;;;;;;1841889;78;21061;-64
2022/11/01 00:26:44;;;;;;;4.78;2.42;;;;;;;;;;1841864;78;21046;-64
2022/11/01 00:29:13;;;;;;;4.83;2.00;;;;;;;;;;1841988;78;21049;-64
2022/11/01 00:31:41;;;;;;;4.58;2.22;;;;;;;;;;1841819;78;21158;-64
2022/11/01 00:34:10;;;;;;;2.25;1.77;;;;;;;;;;1841882;78;21042;-64
2022/11/01 00:36:38;;;;;;;4.37;1.87;;;;;;;;;;1841903;77;21050;-64
2022/11/01 00:39:07;;;;;;;4.97;1.85;;;;;;;;;;1841895;78;21029;-64
2022/11/01 00:41:35;;;;;;;2.72;1.62;;;;;;;;;;1834663;78;21124;-64
2022/11/01 00:44:04;;;;;;;2.85;1.80;;;;;;;;;;1841897;78;21053;-64
2022/11/01 00:46:33;;;;;;;2.47;1.67;;;;;;;;;;1840749;77;21069;-64
2022/11/01 00:49:02;;;;;;;3.15;1.80;;;;;;;;;;1841792;78;21057;-64
2022/11/01 00:51:30;;;;;;;2.45;1.47;;;;;;;;;;1841721;78;21104;-64
2022/11/01 00:53:59;;;;;;;1.75;1.47;;;;;;;;;;1841900;78;21057;-64
2022/11/01 00:56:27;;;;;;;3.50;1.65;;;;;;;;;;1841772;78;21096;-64
2022/11/01 00:58:56;;;;;;;2.27;1.57;;;;;;;;;;1841784;78;21034;-64
2022/11/01 01:01:25;;;;;;;2.72;1.82;;;;;;;;;;1836219;78;21061;-64
2022/11/01 01:03:53;;;;;;;4.70;1.77;;;;;;;;;;1841821;78;21050;-64
2022/11/01 01:06:22;;;;;;;3.15;1.60;;;;;;;;;;1841751;78;21053;-64
2022/11/01 01:08:51;;;;;;;2.42;1.50;;;;;;;;;;1841761;78;21171;-64
2022/11/01 01:11:19;;;;;;;2.17;1.42;;;;;;;;;;1840182;78;21013;-64
2022/11/01 01:13:48;;;;;;;2.80;1.50;;;;;;;;;;1842839;78;21065;-64
2022/11/01 01:16:16;;;;;;;4.22;1.62;;;;;;;;;;1841832;78;21120;-64
2022/11/01 01:18:45;;;;;;;1.70;1.60;;;;;;;;;;1839944;78;21061;-64
2022/11/01 01:21:14;;;;;;;4.08;1.40;;;;;;;;;;1840908;78;21050;-64
2022/11/01 01:23:42;;;;;;;2.30;1.50;;;;;;;;;;1841779;78;21049;-63
2022/11/01 01:26:11;;;;;;;1.67;1.32;;;;;;;;;;1841732;78;21116;-64
2022/11/01 01:28:40;;;;;;;3.00;1.65;;;;;;;;;;1841801;78;21049;-64
2022/11/01 01:31:09;;;;;;;5.00;1.45;;;;;;;;;;1836604;78;21119;-64
2022/11/01 01:33:37;;;;;;;3.00;1.57;;;;;;;;;;1841870;78;21041;-63
2022/11/01 01:36:07;;;;;;;4.72;1.62;;;;;;;;;;1841837;78;21033;-64
2022/11/01 01:38:36;;;;;;;6.05;2.50;;;;;;;;;;1831036;78;21053;-64
2022/11/01 01:43:51;;;;;;;2.58;1.70;;;;;;;;;;1841936;78;21108;-64
2022/11/01 01:46:20;;;;;;;1.98;1.52;;;;;;;;;;1841842;78;21053;-64
2022/11/01 01:48:50;;;;;;;2.08;1.75;;;;;;;;;;1841850;78;21017;-63
2022/11/01 01:51:19;;;;;;;4.30;1.80;;;;;;;;;;1841866;78;21033;-64
2022/11/01 01:53:49;;;;;;;3.37;1.55;;;;;;;;;;1841871;78;21100;-64
2022/11/01 01:56:22;;;;;;;3.42;2.33;;;;;;;;;;1841821;78;21491;-64
2022/11/01 01:58:53;;;;;;;5.65;1.40;;;;;;;;;;1841888;78;21050;-64
2022/11/01 02:01:22;;;;;;;1.92;1.62;;;;;;;;;;1841840;78;21153;-64
2022/11/01 02:03:50;;;;;;;3.87;1.60;;;;;;;;;;1842059;78;21038;-64
2022/11/01 02:06:20;;;;;;;3.92;1.82;;;;;;;;;;1841915;78;21049;-64
2022/11/01 02:08:50;;;;;;;2.20;1.75;;;;;;;;;;1841980;78;21061;-64
2022/11/01 02:11:19;;;;;;;2.37;1.82;;;;;;;;;;1841783;77;21103;-64
2022/11/01 02:13:48;;;;;;;5.15;2.00;;;;;;;;;;1841849;77;21029;-64
2022/11/01 02:16:34;;;;;;;3.70;1.80;;;;;;;;;;1841963;78;21050;-64
2022/11/01 02:19:17;;;;;;;6.85;1.90;;;;;;;;;;1843812;77;21057;-64
2022/11/01 02:21:49;;;;;;;3.98;1.72;;;;;;;;;;1842064;77;21111;-64
2022/11/01 02:24:19;;;;;;;5.12;2.10;;;;;;;;;;1841864;77;20993;-64
2022/11/01 02:26:52;;;;;;;10.00;2.50;;;;;;;;;;1841827;78;21061;-64
2022/11/01 02:29:22;;;;;;;4.37;2.08;;;;;;;;;;1841749;78;21061;-64
2022/11/01 02:32:09;;;;;;;5.65;2.45;;;;;;;;;;1841814;78;21116;-64
2022/11/01 02:34:48;;;;;;;4.20;2.10;;;;;;;;;;1841927;78;21128;-64
2022/11/01 02:37:17;;;;;;;4.55;2.30;;;;;;;;;;1833988;78;21041;-63
2022/11/01 02:39:47;;;;;;;6.70;2.83;;;;;;;;;;1837390;77;21065;-63
2022/11/01 02:42:17;;;;;;;5.05;2.08;;;;;;;;;;1841857;78;21423;-64
2022/11/01 02:44:47;;;;;;;4.87;2.17;;;;;;;;;;1841653;78;21045;-63
2022/11/01 02:47:16;;;;;;;10.18;4.25;;;;;;;;;;1841691;77;21030;-64
2022/11/01 02:49:46;;;;;;;3.42;2.30;;;;;;;;;;1841986;77;21045;-64
2022/11/01 02:52:16;;;;;;;4.62;2.17;;;;;;;;;;1841631;78;21042;-63
2022/11/01 02:54:45;;;;;;;8.63;2.47;;;;;;;;;;1841251;78;21069;-63
2022/11/01 02:57:15;;;;;;;3.33;2.90;;;;;;;;;;1841817;78;21037;-64
2022/11/01 02:59:44;;;;;;;6.00;2.98;;;;;;;;;;1841802;78;21062;-63
2022/11/01 03:02:17;;;;;;;6.58;2.60;;;;;;;;;;1841929;77;21111;-63
2022/11/01 03:04:47;;;;;;;6.47;2.40;;;;;;;;;;1840660;78;21069;-63
2022/11/01 03:07:16;;;;;;;4.47;2.83;;;;;;;;;;1841878;78;21104;-63
2022/11/01 03:09:45;;;;;;;6.42;3.17;;;;;;;;;;1841937;78;21045;-64
2022/11/01 03:12:18;;;;;;;3.83;2.75;;;;;;;;;;1841839;78;21112;-63
2022/11/01 03:14:57;;;;;;;5.58;2.98;;;;;;;;;;1841867;78;21013;-63
2022/11/01 03:17:27;;;;;;;8.18;2.52;;;;;;;;;;1841796;77;21045;-63
2022/11/01 03:20:06;;;;;;;5.83;2.98;;;;;;;;;;1841835;78;21063;-63
2022/11/01 03:22:42;;;;;;;2.40;2.02;;;;;;;;;;1842141;78;21068;-63
2022/11/01 03:28:12;;;;;;;7.85;2.92;;;;;;;;;;1841834;78;21123;-64
2022/11/01 03:30:43;;;;;;;4.83;3.10;;;;;;;;;;1841839;78;21029;-63
2022/11/01 03:33:13;;;;;;;7.60;2.30;;;;;;;;;;1841795;77;21084;-64
2022/11/01 03:35:42;;;;;;;5.70;2.72;;;;;;;;;;1841862;77;21107;-63
2022/11/01 03:38:15;;;;;;;6.22;2.30;;;;;;;;;;1841818;78;21021;-63
2022/11/01 03:40:45;;;;;;;4.40;2.27;;;;;;;;;;1842010;77;21021;-63
2022/11/01 03:43:15;;;;;;;2.20;1.77;;;;;;;;;;1841934;78;21045;-63
2022/11/01 03:45:43;;;;;;;2.65;1.90;;;;;;;;;;1841919;78;21033;-63
2022/11/01 03:48:12;;;;;;;2.50;1.82;;;;;;;;;;1841956;78;21138;-63
2022/11/01 03:50:42;;;;;;;1.85;1.52;;;;;;;;;;1841928;78;21049;-63
2022/11/01 03:53:11;;;;;;;9.03;1.65;;;;;;;;;;1842141;78;21038;-63
2022/11/01 03:55:40;;;;;;;1.75;1.65;;;;;;;;;;1841919;78;21100;-63
2022/11/01 03:58:09;;;;;;;3.15;1.87;;;;;;;;;;1841864;78;21053;-64
2022/11/01 04:00:38;;;;;;;5.45;2.20;;;;;;;;;;1841911;78;21096;-63
2022/11/01 04:03:08;;;;;;;4.03;1.95;;;;;;;;;;1841892;78;21597;-63
2022/11/01 04:05:37;;;;;;;6.33;2.20;;;;;;;;;;1841875;78;21049;-63
2022/11/01 04:08:06;;;;;;;5.28;2.02;;;;;;;;;;1841818;78;21015;-63
2022/11/01 04:10:35;;;;;;;6.30;2.55;;;;;;;;;;1841840;78;21041;-63
2022/11/01 04:13:04;;;;;;;8.88;2.37;;;;;;;;;;1841908;78;21100;-63
2022/11/01 04:21:10;;;;;;;9.48;2.90;;;;;;;;;;1840459;78;21112;-63
2022/11/01 04:23:39;;;;;;;9.68;3.90;;;;;;;;;;1841785;78;21061;-63
2022/11/01 04:26:09;;;;;;;7.03;2.77;;;;;;;;;;1841848;78;21053;-63
2022/11/01 04:31:30;;;;;;;11.65;4.20;;;;;;;;;;1841730;78;21131;-63
2022/11/01 04:34:00;;;;;;;6.87;2.45;;;;;;;;;;1841889;78;21131;-63
2022/11/01 04:36:28;;;;;;;5.58;2.83;;;;;;;;;;1841894;78;21107;-63
2022/11/01 04:38:57;;;;;;;9.73;3.22;;;;;;;;;;1841907;78;21095;-63
2022/11/01 04:41:27;;;;;;;9.30;2.87;;;;;;;;;;1841885;78;21049;-63
2022/11/01 04:43:56;;;;;;;11.73;2.60;;;;;;;;;;1841680;78;21111;-63
2022/11/01 04:46:26;;;;;;;8.93;5.58;;;;;;;;;;1841732;78;21053;-63
2022/11/01 04:48:55;;;;;;;5.33;3.75;;;;;;;;;;1841791;78;21099;-63
2022/11/01 04:51:23;;;;;;;10.00;4.33;;;;;;;;;;1841720;78;21111;-63
2022/11/01 04:53:52;;;;;;;8.45;3.92;;;;;;;;;;1841898;78;21107;-63
2022/11/01 04:56:21;;;;;;;5.78;3.30;;;;;;;;;;1841742;78;21085;-63
2022/11/01 04:58:50;;;;;;;5.90;3.40;;;;;;;;;;1841916;77;21162;-63
2022/11/01 05:01:18;;;;;;;7.45;3.00;;;;;;;;;;1841860;78;21053;-63
2022/11/01 05:03:48;;;;;;;5.33;2.90;;;;;;;;;;1841900;78;21121;-63
2022/11/01 05:06:16;;;;;;;9.65;3.10;;;;;;;;;;1841759;77;21037;-63
2022/11/01 05:08:45;;;;;;;7.62;3.10;;;;;;;;;;1841759;78;21030;-63
2022/11/01 05:11:14;;;;;;;8.95;3.50;;;;;;;;;;1841793;78;21049;-63
2022/11/01 05:13:42;;;;;;;16.32;3.87;;;;;;;;;;1837044;78;21127;-63
2022/11/01 05:16:11;;;;;;;5.42;2.95;;;;;;;;;;1841851;78;21096;-63
2022/11/01 05:18:41;;;;;;;9.10;4.33;;;;;;;;;;1841866;78;21115;-63
2022/11/01 05:21:09;;;;;;;30.68;15.25;;;;;;;;;;1841937;78;21025;-63
2022/11/01 05:23:38;;;;;;;12.63;7.97;;;;;;;;;;1841798;78;21049;-63
2022/11/01 05:26:06;;;;;;;6.70;3.47;;;;;;;;;;1841826;78;21030;-63
2022/11/01 05:28:35;;;;;;;14.58;3.80;;;;;;;;;;1841869;77;21061;-62
2022/11/01 05:31:04;;;;;;;11.70;3.55;;;;;;;;;;1841802;78;21061;-63
2022/11/01 05:33:33;;;;;;;5.40;3.75;;;;;;;;;;1841854;78;21058;-62
2022/11/01 05:36:01;;;;;;;10.63;3.92;;;;;;;;;;1841793;78;21058;-63
2022/11/01 05:38:30;;;;;;;4.42;2.90;;;;;;;;;;1841830;78;21104;-63
2022/11/01 05:41:00;;;;;;;5.67;2.90;;;;;;;;;;1841771;78;21065;-63
2022/11/01 05:43:28;;;;;;;9.40;3.33;;;;;;;;;;1841850;78;21053;-63
2022/11/01 05:45:57;;;;;;;5.15;2.50;;;;;;;;;;1841837;78;21041;-63
2022/11/01 05:48:26;;;;;;;5.58;2.77;;;;;;;;;;1841797;78;21119;-63
2022/11/01 05:50:55;;;;;;;2.75;2.17;;;;;;;;;;1853375;77;21068;-63
2022/11/01 05:53:23;;;;;;;5.78;2.67;;;;;;;;;;1853389;77;21027;-63
2022/11/01 05:55:54;;;;;;;3.10;1.90;;;;;;;;;;1853360;77;21064;-63
2022/11/01 05:58:22;;;;;;;6.10;1.50;;;;;;;;;;1853405;77;21037;-63
2022/11/01 06:00:52;;;;;;;4.55;1.40;;;;;;;;;;1853593;77;21088;-63
2022/11/01 06:03:21;;;;;;;6.37;1.70;;;;;;;;;;1853002;77;21067;-63
2022/11/01 06:05:52;;;;;;;10.35;2.25;;;;;;;;;;1855509;75;21081;-62
2022/11/01 06:08:20;;;;;;;3.62;1.40;;;;;;;;;;1863238;77;21018;-62
2022/11/01 06:10:49;;;;;;;5.20;1.70;;;;;;;;;;1863218;77;21030;-62
2022/11/01 06:13:18;;;;;;;2.62;1.40;;;;;;;;;;1863380;77;21115;-62
2022/11/01 06:15:46;;;;;;;11.48;1.80;;;;;;;;;;1863238;76;21143;-62
2022/11/01 06:18:15;;;;;;;3.40;1.17;;;;;;;;;;1863284;77;21050;-62
2022/11/01 06:20:43;;;;;;;7.35;2.00;;;;;;;;;;1863328;77;21132;-62
2022/11/01 06:23:12;;;;;;;1.70;0.90;;;;;;;;;;1863267;77;21175;-62
2022/11/01 06:25:41;;;;;;;4.42;1.85;;;;;;;;;;1863251;77;21109;-62
2022/11/01 06:28:10;;;;;;;4.65;1.27;;;;;;;;;;1863305;77;21108;-62
2022/11/01 06:30:39;;;;;;;2.83;1.30;;;;;;;;;;1863196;77;21050;-62
2022/11/01 06:33:08;;;;;;;2.85;1.50;;;;;;;;;;1855299;77;21066;-62
2022/11/01 06:35:37;;;;;;;8.08;1.47;;;;;;;;;;1863257;77;21090;-62
2022/11/01 06:38:06;;;;;;;3.60;1.00;;;;;;;;;;1860932;77;21018;-62
2022/11/01 06:40:35;;;;;;;2.52;1.20;;;;;;;;;;1863240;77;21039;-62
2022/11/01 06:43:04;;;;;;;2.02;1.40;;;;;;;;;;1860884;76;21108;-62
2022/11/01 06:45:33;;;;;;;3.30;1.50;;;;;;;;;;1863334;77;21088;-62
2022/11/01 06:48:02;;;;;;;3.95;2.02;;;;;;;;;;1855538;77;21058;-62
2022/11/01 06:50:30;;;;;;;2.87;0.95;;;;;;;;;;1863335;77;21042;-61
2022/11/01 06:52:59;;;;;;;3.70;0.90;;;;;;;;;;1863250;77;21058;-61
2022/11/01 06:55:28;;;;;;;2.33;1.05;;;;;;;;;;1863276;77;21038;-62
2022/11/01 06:57:58;;;;;;;3.05;1.02;;;;;;;;;;1863247;77;21085;-61
2022/11/01 07:00:27;;;;;;;2.72;0.80;;;;;;;;;;1863204;76;21081;-62
2022/11/01 07:03:00;;;;;;;1.35;1.17;;;;;;;;;;1863319;77;21101;-61
2022/11/01 07:05:29;;;;;;;2.05;1.00;;;;;;;;;;1863318;76;21120;-61
2022/11/01 07:07:59;;;;;;;3.77;1.25;;;;;;;;;;1863186;77;21043;-62
2022/11/01 07:10:28;;;;;;;3.42;1.30;;;;;;;;;;1863274;76;21027;-62
2022/11/01 07:12:57;;;;;;;3.58;1.02;;;;;;;;;;1863348;77;21081;-62
2022/11/01 07:15:26;;;;;;;4.55;3.00;;;;;;;;;;1863260;77;21543;-62
2022/11/01 07:17:55;;;;;;;3.08;1.07;;;;;;;;;;1863257;76;21112;-62
2022/11/01 07:20:27;;;;;;;6.25;2.55;;;;;;;;;;1863179;77;21042;-61
2022/11/01 07:22:58;;;;;;;1.67;1.05;;;;;;;;;;1863246;77;21066;-61
2022/11/01 07:25:26;;;;;;;1.60;1.15;;;;;;;;;;1863241;77;21085;-61
2022/11/01 07:27:55;;;;;;;3.62;0.93;;;;;;;;;;1863223;77;21030;-61
2022/11/01 07:30:24;;;;;;;1.50;1.05;;;;;;;;;;1863192;77;21047;-62
2022/11/01 07:32:56;;;;;;;2.92;1.20;;;;;;;;;;1863143;76;21117;-62
2022/11/01 07:35:25;;;;;;;1.60;1.05;;;;;;;;;;1863231;77;21140;-62
2022/11/01 07:37:55;;;;;;;4.42;2.40;;;;;;;;;;1863297;77;21100;-62
2022/11/01 07:40:26;;;;;;;7.28;1.70;;;;;;;;;;1862292;77;21035;-62
2022/11/01 07:42:55;;;;;;;2.25;1.37;;;;;;;;;;1863136;77;21517;-62
2022/11/01 07:45:24;;;;;;;5.05;1.77;;;;;;;;;;1862146;77;21044;-61
2022/11/01 07:47:53;;;;;;;2.20;1.12;;;;;;;;;;1863150;77;21104;-62
2022/11/01 07:50:21;;;;;;;3.83;1.77;;;;;;;;;;1863194;77;21064;-62
2022/11/01 07:52:51;;;;;;;4.67;1.62;;;;;;;;;;1863275;77;21108;-62
2022/11/01 07:55:20;;;;;;;2.92;1.65;;;;;;;;;;1863162;76;21062;-61
2022/11/01 07:57:49;;;;;;;2.62;1.45;;;;;;;;;;1863136;76;21027;-61
2022/11/01 08:00:17;;;;;;;2.50;1.42;;;;;;;;;;1863143;76;21042;-61
2022/11/01 08:02:46;;;;;;;10.90;2.65;;;;;;;;;;1863251;77;21097;-62
2022/11/01 08:05:15;;;;;;;5.58;2.30;;;;;;;;;;1860998;77;21106;-61
2022/11/01 08:07:43;;;;;;;11.33;1.92;;;;;;;;;;1863245;77;21133;-61
2022/11/01 08:10:12;;;;;;;3.30;1.70;;;;;;;;;;1863221;77;21031;-62
2022/11/01 08:12:41;;;;;;;3.72;2.05;;;;;;;;;;1857543;77;21035;-62
2022/11/01 08:15:10;;;;;;;6.25;2.15;;;;;;;;;;1863106;77;21026;-61
2022/11/01 08:17:39;;;;;;;5.83;1.65;;;;;;;;;;1863284;76;21047;-62
2022/11/01 08:20:08;;;;;;;5.53;1.90;;;;;;;;;;1855654;77;21058;-62
2022/11/01 08:22:39;;;;;;;5.12;2.87;;;;;;;;;;1861720;77;21106;-61
2022/11/01 08:25:08;;;;;;;7.20;2.77;;;;;;;;;;1863228;77;21120;-62
2022/11/01 08:27:37;;;;;;;8.70;3.15;;;;;;;;;;1859120;77;21046;-61
2022/11/01 08:30:06;;;;;;;3.80;2.70;;;;;;;;;;1863138;77;21074;-62
2022/11/01 08:32:35;;;;;;;9.20;4.03;;;;;;;;;;1863176;77;21050;-62
2022/11/01 08:35:04;;;;;;;12.37;5.35;;;;;;;;;;1854104;77;21058;-62
2022/11/01 08:37:33;;;;;;;10.93;3.87;;;;;;;;;;1863017;77;21116;-62
2022/11/01 08:40:02;;;;;;;9.90;4.80;;;;;;;;;;1863262;77;21031;-61
2022/11/01 08:42:30;;;;;;;7.05;2.77;;;;;;;;;;1863262;77;21022;-62
2022/11/01 08:44:59;;;;;;;9.13;3.72;;;;;;;;;;1861057;77;21117;-62
2022/11/01 08:47:28;;;;;;;8.53;2.65;;;;;;;;;;1850403;77;21131;-62
2022/11/01 08:49:57;;;;;;;4.12;1.67;;;;;;;;;;1856059;77;21147;-62
2022/11/01 08:52:26;;;;;;;7.60;2.85;;;;;;;;;;1863151;77;21045;-62
2022/11/01 08:54:55;;;;;;;4.62;1.80;;;;;;;;;;1863163;77;21034;-62
2022/11/01 08:57:24;;;;;;;3.85;1.50;;;;;;;;;;1863121;77;21050;-62
2022/11/01 08:59:52;;;;;;;2.98;1.20;;;;;;;;;;1863109;77;21043;-62
2022/11/01 09:02:21;;;;;;;4.95;2.00;;;;;;;;;;1855761;76;21043;-62
2022/11/01 09:04:50;;;;;;;2.75;1.45;;;;;;;;;;1860839;77;21058;-62
2022/11/01 09:07:19;;;;;;;9.38;3.00;;;;;;;;;;1860244;77;21026;-62
2022/11/01 09:09:48;;;;;;;4.33;1.62;;;;;;;;;;1863129;77;21117;-62
2022/11/01 09:12:16;;;;;;;13.93;3.50;;;;;;;;;;1863223;77;21077;-62
2022/11/01 09:15:06;;;;;;;4.87;1.27;;;;;;;;;;1842689;77;21105;-62
2022/11/01 09:17:35;;;;;;;5.72;2.20;;;;;;;;;;1854241;76;21045;-62
2022/11/01 09:20:04;;;;;;;1.65;1.25;;;;;;;;;;1854081;77;21041;-62
2022/11/01 09:22:33;;;;;;;1.70;1.07;;;;;;;;;;1854252;76;21040;-62
2022/11/01 09:25:02;;;;;;;5.30;1.25;;;;;;;;;;1854087;77;21052;-62
2022/11/01 09:27:30;;;;;;;5.42;2.33;;;;;;;;;;1854206;76;21072;-62
2022/11/01 09:29:59;;;;;;;2.58;1.02;;;;;;;;;;1854145;77;21053;-62
2022/11/01 09:35:20;;;;;;;2.12;1.00;;;;;;;;;;1842163;78;21147;-61
2022/11/01 09:37:49;;;;;;;2.17;1.10;;;;;;;;;;1842880;78;21116;-62
2022/11/01 09:40:17;;;;;;;8.35;3.17;;;;;;;;;;1842973;78;21230;-62
2022/11/01 09:42:46;;;;;;;4.80;2.17;;;;;;;;;;1842829;77;21123;-62
2022/11/01 09:45:19;;;;;;;4.12;1.90;;;;;;;;;;1842860;77;21054;-62
2022/11/01 09:47:49;;;;;;;2.92;1.57;;;;;;;;;;1842864;78;21496;-62
2022/11/01 09:50:26;;;;;;;11.33;4.03;;;;;;;;;;1842814;78;21167;-62
2022/11/01 09:52:55;;;;;;;13.98;5.37;;;;;;;;;;1842978;78;21038;-62
2022/11/01 09:55:25;;;;;;;2.05;1.77;;;;;;;;;;1842865;78;21129;-63
2022/11/01 09:57:58;;;;;;;1.75;1.00;;;;;;;;;;1842992;78;21041;-62
2022/11/01 10:00:28;;;;;;;5.10;1.82;;;;;;;;;;1843011;77;21017;-62
2022/11/01 10:03:14;;;;;;;2.72;1.17;;;;;;;;;;1842985;78;21135;-62
2022/11/01 10:05:48;;;;;;;3.05;1.42;;;;;;;;;;1840675;78;21139;-62
2022/11/01 10:08:33;;;;;;;2.35;1.05;;;;;;;;;;1842999;78;21041;-62
2022/11/01 10:11:03;;;;;;;5.47;1.35;;;;;;;;;;1842946;78;21054;-62
2022/11/01 10:13:39;;;;;;;5.37;1.40;;;;;;;;;;1842959;77;21144;-62
2022/11/01 10:16:15;;;;;;;3.27;0.88;;;;;;;;;;1843115;77;21131;-63
2022/11/01 10:18:51;;;;;;;3.37;1.30;;;;;;;;;;1842960;78;21066;-61
2022/11/01 10:21:21;;;;;;;1.67;1.02;;;;;;;;;;1843222;78;21022;-61
2022/11/01 10:23:51;;;;;;;6.97;1.98;;;;;;;;;;1845916;78;21421;-61
2022/11/01 10:26:26;;;;;;;4.22;2.30;;;;;;;;;;1846037;78;21503;-61
2022/11/01 10:29:02;;;;;;;1.77;1.45;;;;;;;;;;1841990;78;21041;-62
2022/11/01 10:31:33;;;;;;;3.33;1.60;;;;;;;;;;1837589;78;21147;-62
2022/11/01 10:34:06;;;;;;;8.70;3.98;;;;;;;;;;1845915;78;21077;-62
2022/11/01 10:36:36;;;;;;;4.62;1.70;;;;;;;;;;1845868;77;21145;-61
2022/11/01 10:39:14;;;;;;;2.30;1.52;;;;;;;;;;1845932;78;21103;-62
2022/11/01 10:41:43;;;;;;;3.60;1.70;;;;;;;;;;1845955;78;21049;-62
2022/11/01 10:44:16;;;;;;;3.60;1.42;;;;;;;;;;1837995;78;21056;-62
2022/11/01 10:46:46;;;;;;;4.70;2.67;;;;;;;;;;1846002;78;21013;-62
2022/11/01 10:49:16;;;;;;;3.45;1.92;;;;;;;;;;1845860;78;21492;-62
2022/11/01 10:51:45;;;;;;;7.30;1.55;;;;;;;;;;1845841;77;21099;-62
2022/11/01 10:54:15;;;;;;;4.08;2.25;;;;;;;;;;1845934;78;21033;-62
2022/11/01 10:56:45;;;;;;;6.85;2.10;;;;;;;;;;1845957;78;21010;-62
2022/11/01 10:59:17;;;;;;;2.22;1.32;;;;;;;;;;1845863;78;21025;-62
2022/11/01 11:01:47;;;;;;;3.75;1.40;;;;;;;;;;1846230;78;21006;-62
2022/11/01 11:04:17;;;;;;;1.60;1.20;;;;;;;;;;1846305;78;21038;-62
2022/11/01 11:06:46;;;;;;;4.03;1.67;;;;;;;;;;1846038;78;21038;-62
2022/11/01 11:09:22;;;;;;;5.12;1.17;;;;;;;;;;1845946;78;21131;-62
2022/11/01 11:11:51;;;;;;;7.00;3.10;;;;;;;;;;1839992;78;21074;-62
2022/11/01 11:14:20;;;;;;;2.22;1.17;;;;;;;;;;1846078;78;21045;-62
2022/11/01 11:16:55;;;;;;;2.95;1.22;;;;;;;;;;1846060;78;21111;-62
2022/11/01 11:19:25;;;;;;;3.27;2.02;;;;;;;;;;1846019;78;21448;-62
2022/11/01 11:21:54;;;;;;;4.65;2.50;;;;;;;;;;1846098;77;21103;-62
2022/11/01 11:24:24;;;;;;;2.62;1.10;;;;;;;;;;1846052;78;21127;-62
2022/11/01 11:26:54;;;;;;;4.42;1.50;;;;;;;;;;1846122;78;21110;-62
2022/11/01 11:29:26;;;;;;;4.03;1.37;;;;;;;;;;1846139;78;21054;-62
2022/11/01 11:31:56;;;;;;;4.47;1.77;;;;;;;;;;1846149;77;21111;-62
2022/11/01 11:34:29;;;;;;;4.58;1.57;;;;;;;;;;1845957;78;21154;-62
2022/11/01 11:36:58;;;;;;;6.53;2.47;;;;;;;;;;1845977;78;21107;-62
2022/11/01 11:39:31;;;;;;;2.27;1.12;;;;;;;;;;1845149;78;21534;-62
2022/11/01 11:42:07;;;;;;;5.05;1.80;;;;;;;;;;1846132;77;21459;-62
2022/11/01 11:44:36;;;;;;;6.22;1.85;;;;;;;;;;1845173;77;21017;-63
2022/11/01 11:47:05;;;;;;;4.35;2.72;;;;;;;;;;1846069;78;21030;-62
2022/11/01 11:49:34;;;;;;;7.28;2.67;;;;;;;;;;1845980;78;21156;-62
2022/11/01 11:52:03;;;;;;;14.90;3.85;;;;;;;;;;1845852;78;21089;-62
2022/11/01 11:54:36;;;;;;;4.83;2.62;;;;;;;;;;1846010;78;21092;-62
2022/11/01 11:57:12;;;;;;;14.03;4.42;;;;;;;;;;1845904;77;21554;-62
2022/11/01 11:59:41;;;;;;;7.85;2.05;;;;;;;;;;1845927;77;21018;-62
2022/11/01 12:02:16;;;;;;;3.47;1.60;;;;;;;;;;1845933;77;21049;-63
2022/11/01 12:04:46;;;;;;;5.67;1.30;;;;;;;;;;1845872;78;21127;-62
2022/11/01 12:07:33;;;;;;;4.55;2.50;;;;;;;;;;1846031;77;21123;-62
2022/11/01 12:10:07;;;;;;;22.40;17.55;;;;;;;;;;1845535;78;21120;-62
2022/11/01 12:12:39;;;;;;;3.95;2.17;;;;;;;;;;1846448;77;21100;-62
2022/11/01 12:15:08;;;;;;;8.28;3.25;;;;;;;;;;1845884;78;21038;-62
2022/11/01 12:17:46;;;;;;;9.93;4.08;;;;;;;;;;1846632;77;21034;-62
2022/11/01 12:20:17;;;;;;;8.70;2.83;;;;;;;;;;1842060;78;21041;-63
2022/11/01 12:23:02;;;;;;;8.68;4.60;;;;;;;;;;1845892;78;21444;-62
2022/11/01 12:25:31;;;;;;;5.05;2.42;;;;;;;;;;1846079;77;21041;-62
2022/11/01 12:28:01;;;;;;;3.87;2.80;;;;;;;;;;1845820;78;21053;-63
2022/11/01 12:30:33;;;;;;;3.25;2.95;;;;;;;;;;1845905;78;21119;-63
2022/11/01 12:33:03;;;;;;;11.70;10.23;;;;;;;;;;1845754;77;21488;-63
2022/11/01 12:35:39;;;;;;;2.83;1.42;;;;;;;;;;1845724;77;21124;-63
2022/11/01 12:38:26;;;;;;;5.92;2.67;;;;;;;;;;1845817;77;21046;-62
2022/11/01 12:40:56;;;;;;;7.03;4.55;;;;;;;;;;1845851;78;21073;-63
2022/11/01 12:43:32;;;;;;;3.90;3.50;;;;;;;;;;1845913;78;21017;-63
2022/11/01 12:46:04;;;;;;;6.47;4.33;;;;;;;;;;1837222;78;21096;-63
2022/11/01 12:48:34;;;;;;;7.75;2.50;;;;;;;;;;1846007;78;21025;-63
2022/11/01 12:51:04;;;;;;;7.80;4.35;;;;;;;;;;1845842;78;21198;-63
2022/11/01 12:53:34;;;;;;;8.90;1.82;;;;;;;;;;1846013;78;21022;-63
2022/11/01 12:56:03;;;;;;;9.78;3.10;;;;;;;;;;1845585;77;21037;-63
2022/11/01 12:58:32;;;;;;;6.92;3.55;;;;;;;;;;1845900;78;21034;-63
2022/11/01 13:01:17;;;;;;;4.67;2.27;;;;;;;;;;1845866;78;21151;-64
2022/11/01 13:04:02;;;;;;;3.50;1.60;;;;;;;;;;1837089;78;21034;-64
2022/11/01 13:06:41;;;;;;;5.20;1.82;;;;;;;;;;1833426;78;21124;-64
2022/11/01 13:09:10;;;;;;;7.10;2.98;;;;;;;;;;1832890;78;21029;-64
2022/11/01 13:11:52;;;;;;;12.45;4.80;;;;;;;;;;1845813;77;21057;-64
2022/11/01 13:14:25;;;;;;;6.15;3.35;;;;;;;;;;1845880;78;21065;-64
2022/11/01 13:16:55;;;;;;;9.00;3.85;;;;;;;;;;1845883;77;21034;-65
2022/11/01 13:22:19;;;;;;;10.18;4.37;;;;;;;;;;1864908;77;21090;-64
2022/11/01 13:24:49;;;;;;;4.12;2.35;;;;;;;;;;1868145;76;21081;-64
2022/11/01 13:27:24;;;;;;;6.10;2.47;;;;;;;;;;1878912;76;21033;-65
2022/11/01 13:29:55;;;;;;;14.38;6.80;;;;;;;;;;1878923;76;21053;-65
2022/11/01 13:32:25;;;;;;;17.07;5.10;;;;;;;;;;1878906;76;21006;-65
2022/11/01 13:35:13;;;;;;;5.40;3.08;;;;;;;;;;1868489;76;21041;-65
2022/11/01 13:37:43;;;;;;;13.75;4.67;;;;;;;;;;1878908;76;21107;-65
2022/11/01 13:40:14;;;;;;;18.20;5.05;;;;;;;;;;1878951;76;21065;-65
2022/11/01 13:42:43;;;;;;;13.08;4.83;;;;;;;;;;1878931;76;21021;-65
2022/11/01 13:45:19;;;;;;;6.30;2.20;;;;;;;;;;1878680;76;21049;-65
2022/11/01 13:47:55;;;;;;;7.33;3.35;;;;;;;;;;1878901;76;21037;-65
2022/11/01 13:50:42;;;;;;;11.55;4.10;;;;;;;;;;1878746;76;21041;-65
2022/11/01 13:53:12;;;;;;;11.53;4.45;;;;;;;;;;1878865;76;21050;-65
2022/11/01 13:55:42;;;;;;;6.90;3.87;;;;;;;;;;1879067;76;21053;-65
2022/11/01 13:58:15;;;;;;;8.58;3.27;;;;;;;;;;1878968;76;21108;-65
2022/11/01 14:00:45;;;;;;;4.95;2.58;;;;;;;;;;1878920;76;21023;-65
2022/11/01 14:03:17;;;;;;;6.70;3.75;;;;;;;;;;1878974;76;21026;-64
2022/11/01 14:05:47;;;;;;;8.48;2.92;;;;;;;;;;1878987;76;21597;-64
2022/11/01 14:08:17;;;;;;;7.35;1.98;;;;;;;;;;1873937;76;21119;-64
2022/11/01 14:10:46;;;;;;;7.10;3.65;;;;;;;;;;1879093;76;21491;-64
2022/11/01 14:13:15;;;;;;;5.45;2.27;;;;;;;;;;1878963;76;21060;-64
2022/11/01 14:15:58;;;;;;;4.60;2.40;;;;;;;;;;1879043;76;21038;-64
2022/11/01 14:18:27;;;;;;;8.80;3.10;;;;;;;;;;1850398;77;21049;-64
2022/11/01 14:20:56;;;;;;;6.80;2.45;;;;;;;;;;1869143;76;21053;-64
2022/11/01 14:23:34;;;;;;;5.95;2.12;;;;;;;;;;1879034;76;21045;-64
2022/11/01 14:26:17;;;;;;;3.50;2.27;;;;;;;;;;1878645;76;21496;-63
2022/11/01 14:28:47;;;;;;;10.18;3.35;;;;;;;;;;1875802;76;21515;-64
2022/11/01 14:31:16;;;;;;;6.05;2.33;;;;;;;;;;1879069;76;21511;-64
2022/11/01 14:33:47;;;;;;;17.23;3.67;;;;;;;;;;1878833;76;21029;-64
2022/11/01 14:36:16;;;;;;;9.15;2.87;;;;;;;;;;1878853;76;21030;-64
2022/11/01 14:38:46;;;;;;;15.08;4.42;;;;;;;;;;1878894;76;21033;-63
2022/11/01 14:41:15;;;;;;;13.35;4.12;;;;;;;;;;1878840;76;21057;-64
2022/11/01 14:43:46;;;;;;;13.50;4.10;;;;;;;;;;1878969;76;21034;-64
2022/11/01 14:46:16;;;;;;;8.08;3.47;;;;;;;;;;1878821;76;21439;-63
2022/11/01 14:48:49;;;;;;;8.40;3.00;;;;;;;;;;1878854;76;21021;-64
2022/11/01 14:51:25;;;;;;;5.70;3.05;;;;;;;;;;1878840;76;21128;-63
2022/11/01 14:53:58;;;;;;;10.10;3.35;;;;;;;;;;1861561;76;21092;-63
2022/11/01 14:56:34;;;;;;;7.40;4.28;;;;;;;;;;1876227;76;21025;-63
2022/11/01 14:59:19;;;;;;;15.25;4.20;;;;;;;;;;1875824;76;21042;-63
2022/11/01 15:01:49;;;;;;;11.95;3.60;;;;;;;;;;1874987;76;21124;-63
2022/11/01 15:04:26;;;;;;;16.75;5.12;;;;;;;;;;1875805;76;21038;-63
2022/11/01 15:06:55;;;;;;;6.42;3.40;;;;;;;;;;1875906;76;21034;-63
2022/11/01 15:09:26;;;;;;;11.10;3.72;;;;;;;;;;1875729;76;21053;-63
2022/11/01 15:11:57;;;;;;;12.65;3.58;;;;;;;;;;1875778;76;21077;-63
2022/11/01 15:14:33;;;;;;;9.35;3.77;;;;;;;;;;1875764;76;21050;-63
2022/11/01 15:17:02;;;;;;;9.48;3.77;;;;;;;;;;1875814;76;21448;-63
2022/11/01 15:19:32;;;;;;;6.30;3.10;;;;;;;;;;1875928;76;21065;-63
2022/11/01 15:22:02;;;;;;;7.30;2.95;;;;;;;;;;1875815;76;21143;-63